Estación Meteorológica Peña el Pijo (Robertgarden) [ 12/10/18 11:48:58 CET ]

Fecha Hora Presion(HPa) Temp (°C) Humedad % Rocio (°C) Viento ( m/s) Direccion Lluvia 1Hora(mm) Lluvia 24H(mm) LLuvia Total(mm)
2018-Jun-28 01:01:51 1010.000 16.5 83 13.6       3.10 269.36
2018-Jun-28 02:01:41 1009.200 16.3 85 13.8       3.10 269.36
2018-Jun-28 03:02:03 1009.000 15.4 85 12.9       3.10 269.36
2018-Jun-28 04:02:21 1008.600 14.9 85 12.4       3.10 269.36
2018-Jun-28 05:02:22 1008.100 14.3 86 12.0       3.10 269.36
2018-Jun-28 06:02:11 1008.200 13.9 86 11.6       3.10 269.36
2018-Jun-28 07:01:38 1008.100 13.8 85 11.3       3.10 269.36
2018-Jun-28 08:01:43 1007.800 14.9 86 12.6       3.10 269.36
2018-Jun-28 09:01:43 1007.600 19.3 82 16.2       3.10 269.36
2018-Jun-28 10:01:45 1007.600 25.1 60 16.8       3.10 269.36
2018-Jun-28 11:01:42 1006.900 29.1 44 15.6       3.10 269.36
2018-Jun-28 12:01:59 1006.500 32.7 36 15.6       3.10 269.36
2018-Jun-28 13:01:53 1006.200 32.1 33 13.7       3.10 269.36
2018-Jun-28 14:01:39 1005.800 33.8 32 14.7       3.10 269.36
2018-Jun-28 15:01:33 1004.900 35.9 25 12.6       3.10 269.36
2018-Jun-28 16:01:47 1004.900 31.3 35 13.9       3.10 269.36
2018-Jun-28 17:01:30 1004.300 31.4 33 13.1       3.10 269.36
2018-Jun-28 18:01:53 1004.100 30.9 36 14.0       3.10 269.36
2018-Jun-28 19:01:46 1003.800 27.6 42 13.5       3.10 269.36
2018-Jun-28 20:01:45 1004.000 26.1 47 13.9         269.36
2018-Jun-28 21:01:41 1004.500 24.9 50 13.8         269.36
2018-Jun-28 22:01:47 1005.000 22.5 48 10.9         269.36
2018-Jun-28 23:01:49 1005.500 19.5 55 10.2         269.36

Temperatura Máxima:35°    Temperatura Mínima:13°
Presión Máxima:1010.000 Hpa    Presión Mínima:1003.800 Hpa


Volver